Time;durP1;ratioP1;P1;durP2;ratioP2;P2;SDS_P1;SDS_P2;PMS_P1;PMS_P2;Temp;Humidity;BMP_temperature;BMP_pressure;BME280_temperature;BME280_humidity;BME280_pressure;Samples;Min_cycle;Max_cycle;Signal;HPM_P1;HPM_P2
2022/03/02 00:00:26;;;;;;;9.68;8.40;;;;;;;5.95;43.09;102305.69;5037130;28;20081;-81
2022/03/02 00:02:53;;;;;;;10.07;9.07;;;;;;;6.04;43.25;102323.72;5021709;28;20262;-81
2022/03/02 00:05:20;;;;;;;11.38;9.25;;;;;;;6.39;42.66;102369.69;5021824;28;20091;-81
2022/03/02 00:07:47;;;;;;;10.00;8.43;;;;;;;6.52;42.05;102377.94;5030748;28;20092;-80
2022/03/02 00:10:13;;;;;;;10.32;8.65;;;;;;;6.23;43.19;102346.69;5030876;28;20124;-81
2022/03/02 00:12:40;;;;;;;11.23;9.18;;;;;;;6.16;42.92;102349.56;5032286;28;20514;-81
2022/03/02 00:15:07;;;;;;;9.68;8.57;;;;;;;6.05;43.38;102345.69;5030693;28;20049;-82
2022/03/02 00:17:34;;;;;;;9.88;8.35;;;;;;;6.03;42.52;102343.13;5013440;28;20133;-82
2022/03/02 00:20:00;;;;;;;9.70;8.73;;;;;;;5.65;42.44;102284.91;5013425;28;20499;-82
2022/03/02 00:22:27;;;;;;;10.63;9.48;;;;;;;5.84;43.17;102324.53;5013216;28;20296;-81
2022/03/02 00:24:53;;;;;;;9.20;8.35;;;;;;;5.94;42.77;102344.34;5013619;28;20132;-81
2022/03/02 00:27:23;;;;;;;9.85;8.82;;;;;;;5.67;42.51;102269.88;5030936;28;20490;-81
2022/03/02 00:29:50;;;;;;;9.18;8.27;;;;;;;6.09;42.86;102340.22;5030900;28;20136;-83
2022/03/02 00:32:17;;;;;;;9.30;8.10;;;;;;;6.15;42.20;102332.03;5012873;28;20049;-81
2022/03/02 00:34:44;;;;;;;12.75;9.05;;;;;;;5.98;40.83;102268.63;5013021;28;20142;-82
2022/03/02 00:37:12;;;;;;;10.07;8.20;;;;;;;6.34;42.81;102362.91;5013465;28;20402;-81
2022/03/02 00:39:39;;;;;;;10.27;8.93;;;;;;;6.02;42.67;102333.50;5012637;28;20080;-82
2022/03/02 00:42:06;;;;;;;12.80;8.57;;;;;;;5.55;42.84;102265.13;5030525;28;20188;-82
2022/03/02 00:44:33;;;;;;;9.50;8.60;;;;;;;4.97;44.19;102185.88;5012796;28;20069;-80
2022/03/02 00:47:04;;;;;;;9.40;8.35;;;;;;;5.34;44.76;102262.47;5013180;28;20077;-82
2022/03/02 00:49:32;;;;;;;8.55;7.75;;;;;;;5.83;44.87;102357.09;5012964;28;20060;-81
2022/03/02 00:52:00;;;;;;;10.80;8.85;;;;;;;4.86;44.31;102202.94;5012337;28;20510;-81
2022/03/02 00:54:26;;;;;;;9.57;8.60;;;;;;;5.83;43.98;102350.97;5012185;28;20053;-82
2022/03/02 00:56:53;;;;;;;11.02;8.65;;;;;;;5.84;44.50;102342.13;5012278;28;20053;-81
2022/03/02 00:59:20;;;;;;;8.98;8.07;;;;;;;5.08;44.68;102228.44;5029867;28;20103;-81
2022/03/02 01:01:46;;;;;;;10.57;8.48;;;;;;;5.51;43.80;102308.31;5012158;28;20492;-81
2022/03/02 01:04:13;;;;;;;8.57;7.68;;;;;;;5.47;44.93;102307.59;5013141;28;20570;-81
2022/03/02 01:06:40;;;;;;;8.73;7.83;;;;;;;5.73;44.51;102348.69;5012514;28;20100;-81
2022/03/02 01:09:06;;;;;;;10.90;8.70;;;;;;;5.64;45.67;102349.06;5029755;28;20136;-82
2022/03/02 01:11:33;;;;;;;9.27;8.30;;;;;;;5.60;44.33;102334.28;5029537;28;20613;-81
2022/03/02 01:13:59;;;;;;;9.30;7.75;;;;;;;5.61;44.43;102330.75;5012475;28;20495;-80
2022/03/02 01:16:26;;;;;;;9.83;7.63;;;;;;;5.41;45.57;102306.97;5012330;28;20087;-81
2022/03/02 01:18:53;;;;;;;9.45;8.45;;;;;;;5.53;45.49;102327.56;5012206;28;20060;-80
2022/03/02 01:21:20;;;;;;;11.95;8.20;;;;;;;4.84;44.94;102211.81;5011799;28;20081;-81
2022/03/02 01:23:46;;;;;;;9.50;8.60;;;;;;;5.50;44.66;102322.41;5011899;28;20568;-80
2022/03/02 01:26:13;;;;;;;12.55;8.75;;;;;;;5.48;45.79;102318.97;5012095;28;20308;-81
2022/03/02 01:28:40;;;;;;;11.52;8.23;;;;;;;5.44;45.17;102320.03;5029257;28;20077;-80
2022/03/02 01:31:06;;;;;;;8.75;7.72;;;;;;;5.28;45.64;102302.19;5012067;28;20048;-80
2022/03/02 01:33:33;;;;;;;11.55;9.73;;;;;;;5.27;44.02;102295.22;5012106;28;20049;-80
2022/03/02 01:36:00;;;;;;;10.53;9.43;;;;;;;5.21;45.43;102290.19;5029619;28;20300;-80
2022/03/02 01:38:27;;;;;;;10.57;9.23;;;;;;;5.41;45.40;102317.50;5011654;28;20069;-81
2022/03/02 01:40:54;;;;;;;11.13;9.67;;;;;;;5.52;43.75;102289.81;5011797;28;20542;-80
2022/03/02 01:43:20;;;;;;;11.13;9.60;;;;;;;5.48;44.68;102301.41;5011458;28;20115;-82
2022/03/02 01:45:47;;;;;;;11.87;9.33;;;;;;;5.27;45.54;102287.34;5012112;28;20059;-80
2022/03/02 01:48:14;;;;;;;13.00;9.93;;;;;;;5.39;44.50;102308.81;5011991;28;20092;-80
2022/03/02 01:50:40;;;;;;;14.47;10.03;;;;;;;5.18;44.58;102274.53;5011905;28;20156;-81
2022/03/02 01:53:07;;;;;;;17.53;10.50;;;;;;;5.31;45.04;102302.06;5028972;28;20561;-80
2022/03/02 01:55:33;;;;;;;15.13;9.70;;;;;;;5.39;44.51;102309.69;5011882;28;20041;-81
2022/03/02 01:58:00;;;;;;;12.50;9.93;;;;;;;5.16;44.61;102263.19;5011284;28;20081;-81
2022/03/02 02:00:27;;;;;;;10.70;9.60;;;;;;;5.33;45.06;102294.13;5010894;28;20144;-81
2022/03/02 02:02:54;;;;;;;11.70;9.90;;;;;;;5.35;44.86;102303.66;5008831;28;20077;-80
2022/03/02 02:05:23;;;;;;;11.63;9.00;;;;;;;4.89;45.63;102226.50;5009210;28;20053;-81
2022/03/02 02:07:50;;;;;;;9.77;8.65;;;;;;;5.31;45.25;102296.81;5026743;28;20136;-81
2022/03/02 02:10:17;;;;;;;9.10;8.00;;;;;;;5.17;45.51;102278.09;5026630;28;20491;-81
2022/03/02 02:12:43;;;;;;;11.03;9.07;;;;;;;4.91;44.62;102239.63;5026203;28;20049;-81
2022/03/02 02:15:11;;;;;;;9.77;8.55;;;;;;;5.25;44.49;102299.69;5016847;28;20046;-80
2022/03/02 02:17:38;;;;;;;10.63;8.20;;;;;;;5.24;44.82;102295.34;4989204;28;20123;-81
2022/03/02 02:20:06;;;;;;;10.07;7.73;;;;;;;5.23;44.25;102288.34;5006695;28;20136;-82
2022/03/02 02:22:42;;;;;;;11.03;8.37;;;;;;;4.98;45.17;102258.66;4989051;28;20053;-82
2022/03/02 02:25:09;;;;;;;9.95;8.82;;;;;;;5.14;45.08;102271.13;4989306;28;20144;-81
2022/03/02 02:27:36;;;;;;;7.95;7.25;;;;;;;4.61;44.68;102162.72;5006659;28;20267;-81
2022/03/02 02:30:04;;;;;;;9.75;8.27;;;;;;;5.29;45.03;102281.97;4989472;28;20084;-81
2022/03/02 02:32:31;;;;;;;8.90;7.93;;;;;;;5.31;45.13;102280.16;5006243;28;20060;-80
2022/03/02 02:34:58;;;;;;;8.60;7.50;;;;;;;4.79;45.06;102204.09;4989523;28;20148;-81
2022/03/02 02:37:25;;;;;;;9.53;7.87;;;;;;;5.01;45.79;102245.38;5007087;28;20140;-81
2022/03/02 02:40:04;;;;;;;12.00;8.37;;;;;;;5.13;45.04;102276.47;4989529;28;20309;-80
2022/03/02 02:42:31;;;;;;;8.97;8.07;;;;;;;4.97;44.66;102259.56;4989234;28;20042;-81
2022/03/02 02:44:57;;;;;;;8.90;7.93;;;;;;;4.88;45.19;102245.84;4989033;28;20135;-81
2022/03/02 02:47:24;;;;;;;9.77;7.73;;;;;;;5.21;44.50;102245.44;4989091;28;20112;-80
2022/03/02 02:49:51;;;;;;;9.00;8.10;;;;;;;4.85;43.44;102172.28;4989233;28;20557;-81
2022/03/02 02:52:18;;;;;;;9.40;8.43;;;;;;;5.13;45.41;102239.63;4989099;28;20057;-80
2022/03/02 02:54:44;;;;;;;8.93;8.00;;;;;;;5.13;45.78;102250.16;4989036;28;20143;-81
2022/03/02 02:57:11;;;;;;;12.80;8.07;;;;;;;5.22;45.29;102273.50;4988949;28;20141;-82
2022/03/02 02:59:38;;;;;;;8.87;7.93;;;;;;;5.14;44.88;102270.28;4988739;28;20251;-80
2022/03/02 03:02:05;;;;;;;12.00;8.30;;;;;;;4.57;44.75;102164.63;5011105;28;20056;-80
2022/03/02 03:04:32;;;;;;;9.23;6.97;;;;;;;5.13;46.02;102265.94;5008623;28;20067;-80
2022/03/02 03:06:59;;;;;;;8.87;7.97;;;;;;;4.74;44.96;102189.44;5028435;28;20081;-81
2022/03/02 03:09:25;;;;;;;8.60;7.40;;;;;;;4.92;45.17;102226.38;5011825;28;20050;-82
2022/03/02 03:11:52;;;;;;;10.20;7.90;;;;;;;4.98;45.03;102243.72;5012357;28;20068;-81
2022/03/02 03:14:19;;;;;;;9.23;7.80;;;;;;;4.86;44.89;102228.41;5026922;28;20111;-82
2022/03/02 03:16:45;;;;;;;8.57;7.43;;;;;;;4.91;44.37;102248.38;5011940;28;20045;-81
2022/03/02 03:19:12;;;;;;;8.45;7.55;;;;;;;4.79;45.09;102227.78;5011925;28;20469;-80
2022/03/02 03:21:39;;;;;;;11.43;7.90;;;;;;;4.92;45.04;102247.44;5011571;28;20059;-82
2022/03/02 03:24:06;;;;;;;12.07;10.73;;;;;;;4.85;45.32;102218.78;5029210;28;20455;-82
2022/03/02 03:26:33;;;;;;;12.80;8.13;;;;;;;4.89;45.01;102223.88;5011632;28;20052;-80
2022/03/02 03:28:59;;;;;;;15.87;8.67;;;;;;;4.88;45.19;102198.50;5011754;28;20071;-81
2022/03/02 03:31:26;;;;;;;10.63;8.20;;;;;;;4.90;44.69;102201.03;5011785;28;20093;-81
2022/03/02 03:33:53;;;;;;;12.27;7.97;;;;;;;5.02;45.65;102218.13;5011459;28;20052;-81
2022/03/02 03:36:19;;;;;;;10.57;8.70;;;;;;;4.54;45.53;102151.59;5011641;28;20098;-80
2022/03/02 03:38:46;;;;;;;11.03;7.57;;;;;;;4.32;45.76;102122.66;5029053;28;20307;-81
2022/03/02 03:41:13;;;;;;;11.43;7.83;;;;;;;5.08;45.41;102236.31;5011139;28;20049;-81
2022/03/02 03:43:39;;;;;;;9.17;7.53;;;;;;;4.97;45.54;102222.72;5028730;28;20600;-81
2022/03/02 03:46:06;;;;;;;9.33;8.47;;;;;;;4.97;45.32;102235.88;5011221;28;20053;-81
2022/03/02 03:48:33;;;;;;;9.50;8.33;;;;;;;4.74;45.02;102192.91;5011371;28;20053;-81
2022/03/02 03:50:59;;;;;;;9.90;7.90;;;;;;;4.87;45.20;102223.06;5011300;28;20091;-80
2022/03/02 03:53:26;;;;;;;8.53;7.63;;;;;;;4.91;45.07;102224.69;5011672;28;20548;-81
2022/03/02 03:55:52;;;;;;;10.93;7.53;;;;;;;4.89;45.48;102221.25;5011079;28;20047;-82
2022/03/02 03:58:19;;;;;;;8.33;6.83;;;;;;;4.89;44.91;102221.25;5011421;28;20067;-82
2022/03/02 04:00:46;;;;;;;8.70;7.77;;;;;;;4.82;45.94;102211.88;5011074;28;20132;-82
2022/03/02 04:03:13;;;;;;;9.87;7.73;;;;;;;4.79;45.36;102209.38;5010843;28;20049;-81
2022/03/02 04:05:40;;;;;;;8.73;7.83;;;;;;;4.66;45.19;102185.31;5013410;28;20060;-82
2022/03/02 04:08:08;;;;;;;8.43;7.53;;;;;;;4.86;43.96;102199.47;5011687;28;20055;-80
2022/03/02 04:10:35;;;;;;;7.93;7.13;;;;;;;4.70;45.19;102175.53;5010881;28;20053;-81
2022/03/02 04:13:02;;;;;;;8.53;7.23;;;;;;;4.81;45.29;102214.59;5011031;28;20313;-81
2022/03/02 04:15:28;;;;;;;8.02;6.75;;;;;;;4.83;45.30;102215.34;4998231;28;20590;-81
2022/03/02 04:17:55;;;;;;;9.87;8.23;;;;;;;4.62;45.44;102167.09;4991249;28;20049;-82
2022/03/02 04:20:22;;;;;;;8.60;7.70;;;;;;;4.85;45.06;102213.53;4991479;28;20069;-80
2022/03/02 04:22:48;;;;;;;9.97;7.67;;;;;;;4.72;45.50;102186.84;4991072;28;20116;-81
2022/03/02 04:25:15;;;;;;;8.23;7.00;;;;;;;4.82;44.18;102197.88;4991262;28;20052;-82
2022/03/02 04:27:42;;;;;;;9.60;7.43;;;;;;;4.76;44.69;102188.44;4990849;28;20072;-79
2022/03/02 04:30:10;;;;;;;10.47;7.73;;;;;;;4.41;44.91;102135.41;5008281;28;20054;-79
2022/03/02 04:32:37;;;;;;;8.40;7.47;;;;;;;4.75;45.00;102177.97;4990649;28;20149;-79
2022/03/02 04:35:06;;;;;;;11.63;8.03;;;;;;;3.97;45.10;102048.63;4990486;28;20299;-82
2022/03/02 04:37:33;;;;;;;9.10;8.13;;;;;;;4.81;44.38;102191.75;4990584;28;20046;-80
2022/03/02 04:39:59;;;;;;;9.20;7.60;;;;;;;4.56;44.63;102156.78;4990784;28;20153;-80
2022/03/02 04:42:26;;;;;;;9.60;7.27;;;;;;;4.83;45.48;102192.56;4990941;28;20140;-79
2022/03/02 04:44:53;;;;;;;7.63;6.83;;;;;;;4.86;45.53;102195.06;5020452;28;20113;-80
2022/03/02 04:47:20;;;;;;;9.40;7.90;;;;;;;4.71;45.42;102164.09;5009936;28;20114;-82
2022/03/02 04:49:46;;;;;;;7.20;6.47;;;;;;;4.80;45.07;102199.69;5010840;28;20260;-87
2022/03/02 04:52:13;;;;;;;9.13;7.67;;;;;;;4.79;45.37;102198.84;5014081;28;20102;-84
2022/03/02 04:57:25;;;;;;;9.80;7.77;;;;;;;4.65;45.08;102170.44;5009258;28;20077;-84
2022/03/02 04:59:52;;;;;;;9.30;7.70;;;;;;;4.59;44.76;102169.84;4991817;28;20068;-83
2022/03/02 05:02:19;;;;;;;8.23;6.73;;;;;;;4.69;45.40;102177.31;4991100;28;20570;-81
2022/03/02 05:04:46;;;;;;;8.07;7.23;;;;;;;4.67;44.27;102176.50;4991934;28;20048;-82
2022/03/02 05:07:12;;;;;;;8.10;7.30;;;;;;;4.50;45.05;102150.84;4991756;28;20144;-83
2022/03/02 05:09:40;;;;;;;7.73;6.30;;;;;;;3.92;45.07;102052.34;4991573;28;20045;-83
2022/03/02 05:12:07;;;;;;;8.97;7.43;;;;;;;4.42;44.20;102131.88;5009033;28;20054;-81
2022/03/02 05:14:34;;;;;;;8.77;7.67;;;;;;;4.69;44.60;102181.72;4994859;28;20467;-81
2022/03/02 05:17:01;;;;;;;10.87;7.63;;;;;;;4.26;43.96;102105.31;5010179;28;20084;-83
2022/03/02 05:19:28;;;;;;;8.23;7.27;;;;;;;4.49;43.42;102143.88;5027965;28;20067;-83
2022/03/02 05:21:55;;;;;;;12.03;7.90;;;;;;;4.54;43.99;102135.81;5027367;28;20095;-85
2022/03/02 05:24:22;;;;;;;10.47;7.40;;;;;;;4.57;44.45;102121.69;5010059;28;20041;-82
2022/03/02 05:26:48;;;;;;;7.67;6.90;;;;;;;4.68;44.52;102144.03;5010165;28;20124;-83
2022/03/02 05:29:15;;;;;;;9.33;7.97;;;;;;;4.63;44.48;102143.31;5009798;28;20144;-83
2022/03/02 05:31:42;;;;;;;9.43;7.33;;;;;;;4.47;44.54;102129.94;5010423;28;20053;-84
2022/03/02 05:34:27;;;;;;;14.67;7.20;;;;;;;4.56;43.78;102135.75;5015612;28;20050;-85
2022/03/02 05:36:56;;;;;;;8.67;7.77;;;;;;;3.31;43.19;101935.56;5019661;28;20132;-83
2022/03/02 05:39:23;;;;;;;9.63;7.30;;;;;;;4.62;42.47;102141.63;5011279;28;20045;-83
2022/03/02 05:41:53;;;;;;;8.40;7.60;;;;;;;4.57;43.31;102129.59;5012055;28;20053;-82
2022/03/02 05:44:20;;;;;;;8.97;7.07;;;;;;;4.76;42.70;102151.63;5011007;28;20514;-82
2022/03/02 05:46:46;;;;;;;10.27;7.23;;;;;;;4.71;42.94;102143.06;5016088;28;20049;-83
2022/03/02 05:49:14;;;;;;;9.67;7.37;;;;;;;4.48;42.95;102105.34;5025002;28;20111;-81
2022/03/02 05:51:41;;;;;;;8.53;7.20;;;;;;;4.24;42.97;102066.88;5030782;28;20049;-82
2022/03/02 05:54:09;;;;;;;9.67;7.27;;;;;;;4.71;42.70;102149.16;5013746;28;20056;-84
2022/03/02 05:56:37;;;;;;;9.17;7.47;;;;;;;4.69;42.60;102148.38;5000003;28;20129;-83
2022/03/02 05:59:05;;;;;;;7.87;7.03;;;;;;;4.67;42.96;102144.94;4987920;28;20133;-83
2022/03/02 06:01:32;;;;;;;9.23;7.93;;;;;;;4.63;42.42;102134.59;4988068;28;20138;-84
2022/03/02 06:04:08;;;;;;;8.87;6.73;;;;;;;4.66;42.32;102139.72;5025677;28;20045;-83
2022/03/02 06:06:40;;;;;;;8.67;7.73;;;;;;;4.70;42.51;102141.31;5008102;28;20057;-81
2022/03/02 06:09:08;;;;;;;8.73;7.43;;;;;;;4.83;42.34;102160.97;5007634;28;20059;-83
2022/03/02 06:11:37;;;;;;;15.73;7.87;;;;;;;4.72;42.46;102144.75;5007284;28;20049;-83
2022/03/02 06:14:07;;;;;;;8.07;7.27;;;;;;;4.84;41.86;102159.19;5007759;28;20235;-82
2022/03/02 06:16:38;;;;;;;8.30;7.10;;;;;;;4.86;42.05;102155.59;5008392;28;20107;-84
2022/03/02 06:19:06;;;;;;;9.30;7.43;;;;;;;4.61;42.35;102121.50;5007713;28;20045;-85
2022/03/02 06:21:34;;;;;;;7.17;6.40;;;;;;;4.81;42.25;102149.66;5007396;28;20049;-84
2022/03/02 06:24:00;;;;;;;8.77;7.07;;;;;;;4.55;42.31;102107.75;5025003;28;20138;-83
2022/03/02 06:26:27;;;;;;;8.03;6.40;;;;;;;4.81;42.18;102139.13;5007370;28;20059;-85
2022/03/02 06:28:54;;;;;;;7.70;6.97;;;;;;;4.83;42.59;102142.56;5007582;28;20049;-83
2022/03/02 06:31:23;;;;;;;8.13;7.20;;;;;;;4.41;42.04;102074.09;5024375;28;20153;-82
2022/03/02 06:33:50;;;;;;;9.50;7.17;;;;;;;4.15;42.26;102014.66;5007488;28;20045;-84
2022/03/02 06:36:18;;;;;;;11.87;7.50;;;;;;;3.22;42.70;101831.75;5007377;28;20045;-83
2022/03/02 06:38:44;;;;;;;9.97;7.47;;;;;;;3.35;41.85;101847.03;5008852;28;20144;-83
2022/03/02 06:41:29;;;;;;;10.80;7.17;;;;;;;4.91;41.33;102114.16;5029900;28;20119;-82
2022/03/02 06:44:46;;;;;;;8.90;6.83;;;;;;;3.59;41.27;101864.47;5011948;28;20419;-83
2022/03/02 06:47:17;;;;;;;7.60;6.70;;;;;;;5.26;41.53;102146.03;4967359;28;20063;-81
2022/03/02 06:50:03;;;;;;;7.78;6.65;;;;;;;5.21;42.00;102139.25;4951179;28;20395;-83
2022/03/02 06:52:39;;;;;;;7.77;6.80;;;;;;;5.25;41.93;102133.81;4989322;28;20250;-82
2022/03/02 06:55:17;;;;;;;11.53;7.47;;;;;;;5.38;42.11;102134.13;5011875;28;20140;-83
2022/03/02 06:57:51;;;;;;;9.10;7.70;;;;;;;4.28;42.32;101955.41;5029552;28;20152;-82
2022/03/02 07:00:18;;;;;;;14.97;7.27;;;;;;;5.45;42.51;102151.38;5029639;28;20323;-83
2022/03/02 07:02:48;;;;;;;10.17;7.53;;;;;;;4.74;42.44;102015.78;5012618;28;20058;-83
2022/03/02 07:05:17;;;;;;;10.90;7.37;;;;;;;5.56;41.92;102153.59;5011984;28;20125;-83
2022/03/02 07:07:45;;;;;;;8.97;7.70;;;;;;;4.56;42.10;101970.03;5011695;28;20494;-83
2022/03/02 07:10:12;;;;;;;10.83;7.77;;;;;;;5.51;42.16;102116.91;5011760;28;20076;-83
2022/03/02 07:12:39;;;;;;;12.63;8.40;;;;;;;4.99;42.31;102026.13;5012693;28;20073;-83
2022/03/02 07:15:07;;;;;;;11.77;8.10;;;;;;;5.78;42.59;102142.97;5014193;28;20073;-84
2022/03/02 07:17:34;;;;;;;13.00;8.57;;;;;;;5.61;41.83;102088.38;5014106;28;20491;-83
2022/03/02 07:20:04;;;;;;;10.17;8.90;;;;;;;5.96;41.72;102136.03;5028444;28;20634;-83
2022/03/02 07:22:52;;;;;;;9.27;8.27;;;;;;;5.13;41.52;101992.16;5011690;28;20053;-80
2022/03/02 07:25:27;;;;;;;10.73;8.65;;;;;;;6.06;42.04;102136.47;5029538;28;20411;-81
2022/03/02 07:27:56;;;;;;;9.17;6.90;;;;;;;5.29;41.29;102006.38;5012514;28;20096;-83
2022/03/02 07:30:23;;;;;;;11.37;8.07;;;;;;;6.03;41.74;102119.00;5012110;28;20084;-82
2022/03/02 07:32:55;;;;;;;11.73;8.37;;;;;;;5.44;40.85;102002.19;5029618;28;20115;-82
2022/03/02 07:35:23;;;;;;;9.43;7.83;;;;;;;5.91;40.49;102074.72;5011411;28;20057;-83
2022/03/02 07:37:50;;;;;;;9.40;8.23;;;;;;;6.46;39.77;102153.97;5012579;28;20073;-82
2022/03/02 07:40:17;;;;;;;11.90;8.20;;;;;;;6.52;40.08;102151.00;5012299;28;20072;-80
2022/03/02 07:42:45;;;;;;;12.65;7.88;;;;;;;6.66;38.97;102150.38;5029655;28;20046;-83
2022/03/02 07:45:12;;;;;;;8.48;7.68;;;;;;;6.79;38.55;102158.53;5029278;28;20053;-82
2022/03/02 07:47:38;;;;;;;14.13;8.30;;;;;;;6.92;37.85;102149.13;5029592;28;20085;-83
2022/03/02 07:50:06;;;;;;;8.77;7.10;;;;;;;6.19;37.45;101989.97;5029237;28;20557;-80
2022/03/02 07:52:36;;;;;;;8.23;7.43;;;;;;;7.01;36.27;102116.94;5012716;28;20081;-81
2022/03/02 07:55:09;;;;;;;10.82;7.15;;;;;;;6.99;36.53;102087.16;5014967;28;20049;-82
2022/03/02 07:57:52;;;;;;;11.73;7.32;;;;;;;7.24;36.30;102133.47;5030753;28;20498;-81
2022/03/02 08:00:19;;;;;;;7.53;6.80;;;;;;;7.15;36.32;102113.63;5027336;28;20053;-82
2022/03/02 08:02:47;;;;;;;12.68;7.68;;;;;;;7.43;36.26;102149.22;5027880;28;20075;-82
2022/03/02 08:05:22;;;;;;;7.75;6.95;;;;;;;5.98;36.64;101910.13;5029237;28;20050;-82
2022/03/02 08:07:51;;;;;;;8.35;6.75;;;;;;;7.47;36.39;102150.75;5043429;28;20049;-81
2022/03/02 08:10:19;;;;;;;8.50;7.10;;;;;;;5.91;36.09;101884.94;5017431;28;20346;-81
2022/03/02 08:12:46;;;;;;;8.05;7.25;;;;;;;6.99;36.06;102052.81;4996411;28;20041;-80
2022/03/02 08:15:13;;;;;;;8.13;7.30;;;;;;;6.82;35.99;102005.28;5021346;28;20474;-81
2022/03/02 08:17:43;;;;;;;10.82;7.45;;;;;;;7.47;36.11;102108.47;5030655;28;20088;-81
2022/03/02 08:20:11;;;;;;;8.52;7.65;;;;;;;7.56;35.84;102104.53;5032974;28;20525;-83
2022/03/02 08:22:44;;;;;;;8.52;7.47;;;;;;;7.46;36.51;102085.66;5011097;28;20440;-81
2022/03/02 08:25:11;;;;;;;8.38;7.57;;;;;;;7.80;35.60;102127.03;5028151;28;20064;-80
2022/03/02 08:27:40;;;;;;;8.40;7.28;;;;;;;7.24;35.70;102020.72;5010716;28;20284;-83
2022/03/02 08:30:08;;;;;;;8.73;7.93;;;;;;;7.71;35.80;102109.00;5030393;28;20089;-81
2022/03/02 08:32:41;;;;;;;10.35;7.90;;;;;;;7.30;35.42;102024.81;5013807;28;20476;-80
2022/03/02 08:35:08;;;;;;;;;;;;;;;7.83;35.31;102123.34;5027660;28;20521;-82
2022/03/02 08:37:35;;;;;;;11.00;6.93;;;;;;;7.79;35.55;102109.47;5011044;28;19951;-82
2022/03/02 08:40:04;;;;;;;9.05;7.32;;;;;;;7.00;36.15;101983.22;5011294;28;20488;-82
2022/03/02 08:42:32;;;;;;;8.48;7.55;;;;;;;7.26;36.07;102015.38;5027052;28;20100;-81
2022/03/02 08:45:00;;;;;;;9.50;8.13;;;;;;;8.02;35.29;102120.59;5028163;28;20450;-80
2022/03/02 08:47:27;;;;;;;8.85;7.93;;;;;;;6.99;35.04;101927.84;5028131;28;20045;-81
2022/03/02 08:49:56;;;;;;;9.15;8.25;;;;;;;8.18;34.85;102129.41;5011573;28;20446;-81
2022/03/02 08:52:29;;;;;;;9.85;8.90;;;;;;;8.02;34.26;102078.28;5009836;28;20167;-81
2022/03/02 08:54:56;;;;;;;12.05;8.57;;;;;;;7.71;34.29;102011.19;5027144;28;20049;-82
2022/03/02 08:57:23;;;;;;;10.07;8.10;;;;;;;8.34;34.65;102122.31;5009599;28;20065;-82
2022/03/02 08:59:52;;;;;;;9.55;8.55;;;;;;;8.31;34.48;102101.31;5009882;28;20107;-80
2022/03/02 09:02:24;;;;;;;13.07;9.00;;;;;;;8.27;33.99;102096.28;5009321;28;20159;-81
2022/03/02 09:04:53;;;;;;;;;;;;;;;8.43;34.35;102115.69;5028123;28;20059;-79
2022/03/02 09:07:21;;;;;;;10.30;8.73;;;;;;;8.43;34.88;102113.06;5011732;28;19925;-80
2022/03/02 09:09:48;;;;;;;10.48;9.43;;;;;;;8.49;35.07;102101.25;5028440;28;20061;-80
2022/03/02 09:12:15;;;;;;;11.32;9.45;;;;;;;8.42;34.88;102063.69;5026925;28;20045;-81
2022/03/02 09:14:43;;;;;;;11.10;9.50;;;;;;;8.61;34.90;102075.91;5029910;28;20052;-81
2022/03/02 09:17:11;;;;;;;15.95;9.68;;;;;;;8.93;34.87;102108.47;5030176;28;20154;-81
2022/03/02 09:19:39;;;;;;;11.20;9.85;;;;;;;9.01;34.79;102087.69;5030512;28;20049;-80
2022/03/02 09:22:06;;;;;;;11.93;10.07;;;;;;;9.19;35.18;102099.00;5030067;28;20107;-81
2022/03/02 09:24:34;;;;;;;11.13;9.10;;;;;;;9.00;34.70;102046.22;5030516;28;20478;-82
2022/03/02 09:27:01;;;;;;;12.90;10.10;;;;;;;9.40;34.67;102078.31;5030567;28;20040;-80
2022/03/02 09:29:30;;;;;;;11.18;10.15;;;;;;;8.83;34.69;101956.34;5030479;28;20252;-80
2022/03/02 09:31:59;;;;;;;12.85;10.80;;;;;;;9.72;34.77;102089.59;5030889;28;20071;-82
2022/03/02 09:34:29;;;;;;;12.32;9.93;;;;;;;9.86;34.59;102094.06;5030371;28;20240;-80
2022/03/02 09:36:59;;;;;;;11.40;10.15;;;;;;;9.97;34.87;102088.91;5047981;28;20491;-81
2022/03/02 09:39:26;;;;;;;11.25;9.95;;;;;;;9.92;35.12;102034.44;5029879;28;20051;-83
2022/03/02 09:42:15;;;;;;;11.68;10.35;;;;;;;10.26;34.24;102070.28;5030773;28;20573;-81
2022/03/02 09:44:47;;;;;;;11.13;9.93;;;;;;;10.47;33.35;102058.31;5030081;28;20561;-81
2022/03/02 09:47:17;;;;;;;14.80;11.32;;;;;;;10.68;33.66;102068.50;5030045;28;20558;-81
2022/03/02 09:49:53;;;;;;;12.77;10.98;;;;;;;10.69;33.93;102047.13;5029945;28;20223;-81
2022/03/02 09:52:20;;;;;;;11.82;10.63;;;;;;;10.88;33.66;102043.25;5048246;28;20045;-82
2022/03/02 09:54:53;;;;;;;16.15;11.63;;;;;;;10.76;33.07;102010.41;5031416;28;20041;-80
2022/03/02 09:57:21;;;;;;;14.82;11.00;;;;;;;11.13;31.90;102047.75;5050016;28;20076;-79
2022/03/02 09:59:56;;;;;;;13.68;11.65;;;;;;;10.83;32.04;101989.59;5029590;28;20060;-79
2022/03/02 10:02:40;;;;;;;17.02;12.18;;;;;;;11.46;32.13;102052.56;5028392;28;20522;-82
2022/03/02 10:05:13;;;;;;;13.02;11.70;;;;;;;11.61;32.46;102045.31;5029184;28;20083;-82
2022/03/02 10:07:45;;;;;;;13.13;11.75;;;;;;;11.59;32.41;102031.28;5028251;28;20139;-82
2022/03/02 10:10:15;;;;;;;13.90;11.52;;;;;;;11.52;31.54;101982.13;5028273;28;20048;-82
2022/03/02 10:12:42;;;;;;;12.88;11.38;;;;;;;11.88;31.75;102017.75;5028526;28;20562;-82
2022/03/02 10:15:15;;;;;;;14.82;12.02;;;;;;;11.92;31.26;101989.97;5036513;28;20132;-80
2022/03/02 10:17:45;;;;;;;12.63;11.32;;;;;;;11.64;30.23;101937.84;5009358;28;20503;-80
2022/03/02 10:20:37;;;;;;;11.65;10.38;;;;;;;11.45;29.85;101890.44;5008977;28;20053;-82
2022/03/02 10:23:40;;;;;;;11.35;10.25;;;;;;;12.39;29.91;102036.19;5026506;28;20191;-82
2022/03/02 10:26:23;;;;;;;14.48;10.60;;;;;;;10.79;31.19;101759.66;5009578;28;20136;-81
2022/03/02 10:28:49;;;;;;;;;;;;;;;12.28;30.42;101974.88;5009195;28;20068;-81
2022/03/02 10:31:41;;;;;;;15.30;11.43;;;;;;;12.82;30.15;102022.34;5009441;28;20353;-82
2022/03/02 10:34:12;;;;;;;14.50;12.48;;;;;;;13.03;29.81;102020.69;5008308;28;20046;-81
2022/03/02 10:36:45;;;;;;;17.85;11.75;;;;;;;12.65;30.04;101945.50;5006553;28;20136;-82
2022/03/02 10:39:31;;;;;;;12.95;11.63;;;;;;;13.07;29.43;101994.63;5016285;28;20050;-81
2022/03/02 10:42:04;;;;;;;14.90;11.00;;;;;;;13.40;29.12;102017.03;4989895;28;20086;-82
2022/03/02 10:44:30;;;;;;;14.60;11.77;;;;;;;13.51;29.13;102009.00;5024147;28;20154;-81
2022/03/02 10:47:03;;;;;;;18.80;11.88;;;;;;;13.58;28.23;102006.72;5007040;28;20050;-82
2022/03/02 10:49:32;;;;;;;16.52;11.95;;;;;;;13.37;28.22;101943.41;5001667;28;20190;-83
2022/03/02 10:52:01;;;;;;;13.50;11.10;;;;;;;13.53;29.03;101926.19;5015936;28;20060;-82
2022/03/02 10:54:30;;;;;;;13.35;11.50;;;;;;;14.06;28.35;101982.38;5026399;28;20369;-80
2022/03/02 10:57:02;;;;;;;12.20;10.90;;;;;;;13.63;27.54;101874.63;5026420;28;20049;-82
2022/03/02 10:59:31;;;;;;;13.40;10.80;;;;;;;14.31;26.77;101946.47;5044236;28;20487;-82
2022/03/02 11:02:00;;;;;;;12.85;10.50;;;;;;;14.58;26.69;101978.06;5024708;28;20061;-82
2022/03/02 11:04:30;;;;;;;11.98;9.98;;;;;;;14.90;25.97;101977.16;5023540;28;20045;-82
2022/03/02 11:07:03;;;;;;;10.90;9.43;;;;;;;14.39;25.78;101892.38;5026325;28;20523;-82
2022/03/02 11:09:50;;;;;;;11.98;8.93;;;;;;;14.99;25.12;101971.03;5029819;28;20045;-82
2022/03/02 11:12:20;;;;;;;12.38;10.50;;;;;;;15.18;25.21;101948.91;5027154;28;20055;-81
2022/03/02 11:15:05;;;;;;;11.00;9.95;;;;;;;14.99;23.43;101928.25;5027201;28;20080;-82
2022/03/02 11:17:32;;;;;;;11.98;9.55;;;;;;;14.99;23.65;101944.28;5026492;28;20564;-83
2022/03/02 11:20:05;;;;;;;11.40;10.10;;;;;;;15.08;24.51;101940.81;5027652;28;20114;-82
2022/03/02 11:22:32;;;;;;;11.10;9.98;;;;;;;15.10;23.89;101928.16;5028624;28;20100;-82
2022/03/02 11:24:59;;;;;;;10.75;9.40;;;;;;;15.28;24.92;101932.88;5029273;28;20084;-83
2022/03/02 11:27:38;;;;;;;11.95;8.77;;;;;;;15.39;23.75;101914.06;5035612;28;20104;-83
2022/03/02 11:30:08;;;;;;;11.73;10.20;;;;;;;15.35;23.54;101878.69;5059823;28;20078;-82
2022/03/02 11:32:37;;;;;;;12.95;8.80;;;;;;;14.37;23.97;101708.22;5046708;28;20045;-83
2022/03/02 11:35:05;;;;;;;11.65;9.85;;;;;;;15.44;23.84;101885.06;5042750;28;20053;-84
2022/03/02 11:37:33;;;;;;;11.60;10.32;;;;;;;15.18;24.10;101879.34;5034842;28;20083;-84